Time;durP1;ratioP1;P1;durP2;ratioP2;P2;SDS_P1;SDS_P2;PMS_P1;PMS_P2;Temp;Humidity;BMP_temperature;BMP_pressure;BME280_temperature;BME280_humidity;BME280_pressure;Samples;Min_cycle;Max_cycle;Signal;HPM_P1;HPM_P2
2021/06/21 00:01:25;;;;;;;6.05;3.53;;;14.40;99.90;;;;;;5056187;28;20059;-77
2021/06/21 00:03:50;;;;;;;7.25;2.90;;;14.40;99.90;;;;;;5079189;28;20071;-76
2021/06/21 00:06:16;;;;;;;;;;;14.40;99.90;;;;;;5092503;28;20426;-75
2021/06/21 00:08:42;;;;;;;5.68;3.50;;;14.30;99.90;;;;;;5085168;28;20400;-78
2021/06/21 00:11:08;;;;;;;5.70;3.05;;;14.30;99.90;;;;;;5084970;28;20040;-77
2021/06/21 00:13:35;;;;;;;7.57;3.65;;;14.30;99.90;;;;;;5092411;28;20063;-77
2021/06/21 00:16:01;;;;;;;5.78;3.53;;;14.30;99.90;;;;;;5092215;28;20448;-76
2021/06/21 00:18:26;;;;;;;5.25;3.22;;;14.30;99.90;;;;;;5091934;28;20131;-76
2021/06/21 00:20:53;;;;;;;6.93;3.90;;;14.30;99.90;;;;;;5073323;28;20040;-76
2021/06/21 00:23:20;;;;;;;6.00;3.45;;;14.30;99.90;;;;;;5092317;28;20481;-79
2021/06/21 00:25:47;;;;;;;8.90;2.78;;;14.20;99.90;;;;;;5091558;28;20196;-79
2021/06/21 00:28:14;;;;;;;6.50;3.30;;;14.20;99.90;;;;;;5092809;28;20032;-75
2021/06/21 00:30:40;;;;;;;6.70;3.13;;;14.20;99.90;;;;;;5092548;28;20075;-76
2021/06/21 00:33:06;;;;;;;;;;;14.20;99.90;;;;;;5090908;28;20524;-76
2021/06/21 00:35:32;;;;;;;4.90;2.92;;;14.20;99.90;;;;;;5091242;28;19916;-77
2021/06/21 00:37:58;;;;;;;5.85;2.78;;;14.20;99.90;;;;;;5066382;28;20397;-76
2021/06/21 00:40:25;;;;;;;5.28;3.20;;;14.10;99.90;;;;;;5064751;28;20481;-76
2021/06/21 00:42:51;;;;;;;4.30;3.20;;;14.10;99.90;;;;;;5091928;28;20052;-75
2021/06/21 00:45:20;;;;;;;4.50;3.00;;;14.10;99.90;;;;;;5092746;28;20162;-77
2021/06/21 00:47:50;;;;;;;5.97;2.85;;;14.10;99.90;;;;;;5091889;28;20043;-76
2021/06/21 00:50:16;;;;;;;5.78;2.90;;;14.10;99.90;;;;;;5091625;28;20047;-76
2021/06/21 00:52:42;;;;;;;;;;;14.10;99.90;;;;;;5066396;28;20452;-78
2021/06/21 00:55:09;;;;;;;4.70;2.45;;;14.10;99.90;;;;;;5086891;28;19930;-80
2021/06/21 00:57:37;;;;;;;5.05;2.50;;;14.10;99.90;;;;;;5064680;28;20386;-76
2021/06/21 01:00:13;;;;;;;4.55;2.63;;;14.10;99.90;;;;;;5087713;28;20040;-75
2021/06/21 01:02:39;;;;;;;6.28;2.90;;;14.10;99.90;;;;;;5091241;28;20135;-78
2021/06/21 01:05:14;;;;;;;4.93;2.97;;;14.10;99.90;;;;;;5091717;28;20039;-78
2021/06/21 01:07:41;;;;;;;6.57;2.78;;;14.10;99.90;;;;;;5091421;28;20063;-79
2021/06/21 01:10:09;;;;;;;5.70;3.00;;;14.10;99.90;;;;;;5090592;28;20040;-77
2021/06/21 01:12:58;;;;;;;3.92;3.00;;;14.10;99.90;;;;;;5091545;28;20032;-76
2021/06/21 01:15:29;;;;;;;7.00;3.10;;;14.10;99.90;;;;;;5073215;28;20047;-77
2021/06/21 01:18:00;;;;;;;7.90;3.25;;;14.10;99.90;;;;;;5091290;28;20048;-77
2021/06/21 01:21:00;;;;;;;3.70;2.67;;;14.10;99.90;;;;;;5090795;28;20073;-75
2021/06/21 01:24:08;;;;;;;5.72;3.08;;;14.10;99.90;;;;;;5079018;28;20044;-79
2021/06/21 01:26:52;;;;;;;5.68;3.28;;;14.10;99.90;;;;;;5054526;28;20403;-75
2021/06/21 01:29:44;;;;;;;6.93;3.38;;;14.10;99.90;;;;;;5090712;28;20040;-76
2021/06/21 01:32:16;;;;;;;4.47;2.70;;;14.10;99.90;;;;;;5089029;28;20059;-76
2021/06/21 01:34:47;;;;;;;4.65;2.30;;;14.00;99.90;;;;;;5090808;28;20409;-79
2021/06/21 01:37:15;;;;;;;4.82;2.78;;;14.10;99.90;;;;;;5091139;28;20050;-75
2021/06/21 01:39:45;;;;;;;5.65;2.70;;;14.10;99.90;;;;;;5064404;28;20098;-78
2021/06/21 01:42:14;;;;;;;4.00;2.60;;;14.10;99.90;;;;;;5085021;28;20032;-77
2021/06/21 01:44:43;;;;;;;4.32;2.53;;;14.10;99.90;;;;;;5090760;28;20036;-77
2021/06/21 01:47:10;;;;;;;5.22;2.75;;;14.10;99.90;;;;;;5090980;28;20082;-77
2021/06/21 01:49:43;;;;;;;4.28;2.63;;;14.10;99.90;;;;;;5090623;28;20032;-74
2021/06/21 01:52:10;;;;;;;6.03;3.05;;;14.10;99.90;;;;;;5090929;28;20032;-78
2021/06/21 01:54:41;;;;;;;4.47;2.75;;;14.10;99.90;;;;;;5101315;28;20036;-74
2021/06/21 01:57:07;;;;;;;4.72;2.90;;;14.10;99.90;;;;;;5090972;28;20051;-78
2021/06/21 01:59:35;;;;;;;5.25;3.10;;;14.10;99.90;;;;;;5089732;28;20040;-76
2021/06/21 02:02:02;;;;;;;6.85;3.17;;;14.10;99.90;;;;;;5054919;28;20036;-77
2021/06/21 02:04:32;;;;;;;8.88;3.83;;;14.10;99.90;;;;;;5082156;28;20089;-78
2021/06/21 02:07:00;;;;;;;7.55;3.58;;;14.10;99.90;;;;;;5090693;28;20066;-78
2021/06/21 02:09:27;;;;;;;9.32;3.92;;;14.10;99.90;;;;;;5076288;28;20048;-77
2021/06/21 02:11:55;;;;;;;11.48;4.25;;;14.10;99.90;;;;;;5089407;28;20088;-78
2021/06/21 02:14:28;;;;;;;8.15;4.40;;;14.10;99.90;;;;;;5090096;28;20538;-76
2021/06/21 02:16:55;;;;;;;16.38;5.40;;;14.10;99.90;;;;;;5090411;28;20070;-78
2021/06/21 02:19:26;;;;;;;7.43;4.32;;;14.10;99.90;;;;;;5058777;28;20043;-77
2021/06/21 02:21:53;;;;;;;7.38;4.30;;;14.10;99.90;;;;;;5090242;28;20047;-76
2021/06/21 02:24:19;;;;;;;10.90;4.60;;;14.10;99.90;;;;;;5090290;28;20032;-78
2021/06/21 02:26:47;;;;;;;9.00;4.07;;;14.10;99.90;;;;;;5082028;28;20040;-78
2021/06/21 02:29:17;;;;;;;7.72;3.70;;;14.10;99.90;;;;;;5090683;28;20445;-76
2021/06/21 02:31:45;;;;;;;5.70;3.70;;;14.10;99.90;;;;;;5072125;28;20040;-77
2021/06/21 02:34:11;;;;;;;8.57;4.03;;;14.10;99.90;;;;;;5092275;28;20056;-76
2021/06/21 02:36:37;;;;;;;7.53;3.97;;;14.10;99.90;;;;;;5093905;28;20085;-76
2021/06/21 02:39:06;;;;;;;8.25;3.40;;;14.10;99.90;;;;;;5094415;28;20039;-78
2021/06/21 02:41:32;;;;;;;5.43;3.58;;;14.10;99.90;;;;;;5093175;28;20051;-75
2021/06/21 02:43:58;;;;;;;6.65;3.35;;;14.10;99.90;;;;;;5058756;28;20053;-77
2021/06/21 02:46:24;;;;;;;8.52;3.28;;;14.00;99.90;;;;;;5085045;28;20485;-75
2021/06/21 02:48:50;;;;;;;6.50;3.40;;;14.00;99.90;;;;;;5094062;28;20119;-78
2021/06/21 02:51:23;;;;;;;6.05;3.38;;;14.10;99.90;;;;;;5094001;28;20113;-74
2021/06/21 02:54:08;;;;;;;9.95;3.30;;;14.10;99.90;;;;;;5094306;28;20036;-77
2021/06/21 02:56:49;;;;;;;8.80;3.70;;;14.10;99.90;;;;;;5092785;28;20109;-79
2021/06/21 02:59:19;;;;;;;6.95;3.35;;;14.00;99.90;;;;;;5094341;28;20040;-77
2021/06/21 03:01:51;;;;;;;6.35;3.63;;;14.00;99.90;;;;;;5093712;28;20044;-76
2021/06/21 03:04:20;;;;;;;5.32;3.40;;;13.90;99.90;;;;;;5094521;28;20051;-76
2021/06/21 03:06:48;;;;;;;9.35;3.75;;;13.80;99.90;;;;;;5092974;28;20060;-76
2021/06/21 03:09:18;;;;;;;7.93;4.00;;;13.80;99.90;;;;;;5082508;28;20043;-76
2021/06/21 03:11:48;;;;;;;8.23;3.88;;;13.70;99.90;;;;;;5091842;28;20287;-76
2021/06/21 03:14:14;;;;;;;6.60;3.50;;;13.80;99.90;;;;;;5093884;28;20391;-74
2021/06/21 03:16:41;;;;;;;5.57;3.60;;;13.70;99.90;;;;;;5093652;28;20032;-78
2021/06/21 03:19:11;;;;;;;9.35;4.45;;;13.70;99.90;;;;;;5062551;28;20044;-78
2021/06/21 03:21:36;;;;;;;7.50;4.28;;;13.60;99.90;;;;;;5074320;28;20563;-78
2021/06/21 03:24:03;;;;;;;10.98;4.20;;;13.50;99.90;;;;;;5075941;28;20040;-77
2021/06/21 03:26:30;;;;;;;12.68;3.95;;;13.60;99.90;;;;;;5085960;28;20111;-76
2021/06/21 03:28:57;;;;;;;11.10;4.05;;;13.50;99.90;;;;;;5094929;28;20070;-76
2021/06/21 03:31:25;;;;;;;6.93;3.22;;;13.40;99.90;;;;;;5094841;28;20062;-78
2021/06/21 03:33:51;;;;;;;6.90;3.88;;;13.40;99.90;;;;;;5075760;28;20074;-76
2021/06/21 03:36:17;;;;;;;;;;;13.40;99.90;;;;;;5093652;28;20055;-79
2021/06/21 03:38:43;;;;;;;9.27;4.07;;;13.30;99.90;;;;;;5093231;28;19923;-77
2021/06/21 03:41:09;;;;;;;7.95;4.05;;;13.30;99.90;;;;;;5093343;28;20032;-76
2021/06/21 03:43:36;;;;;;;7.65;3.83;;;13.20;99.90;;;;;;5061770;28;20049;-77
2021/06/21 03:46:04;;;;;;;6.43;4.43;;;13.20;99.90;;;;;;5093176;28;20165;-76
2021/06/21 03:48:36;;;;;;;7.72;4.65;;;13.20;99.90;;;;;;5093106;28;20041;-77
2021/06/21 03:51:02;;;;;;;10.70;5.00;;;13.20;99.90;;;;;;5066563;28;20044;-77
2021/06/21 03:53:28;;;;;;;10.60;4.72;;;13.20;99.90;;;;;;5088804;28;20111;-76
2021/06/21 03:55:55;;;;;;;9.10;4.25;;;13.20;99.90;;;;;;5024615;28;20056;-78
2021/06/21 03:58:21;;;;;;;10.70;4.72;;;13.20;99.90;;;;;;5061336;28;20093;-79
2021/06/21 04:00:48;;;;;;;;;;;13.20;99.90;;;;;;5065457;28;20470;-79
2021/06/21 04:03:15;;;;;;;10.75;5.43;;;13.30;99.90;;;;;;5089408;28;20502;-78
2021/06/21 04:05:42;;;;;;;11.38;5.47;;;13.30;99.90;;;;;;5093032;28;20067;-77
2021/06/21 04:08:10;;;;;;;9.75;5.50;;;13.30;99.90;;;;;;5090861;28;20048;-77
2021/06/21 04:10:37;;;;;;;12.98;5.07;;;13.30;99.90;;;;;;5082049;28;20400;-78
2021/06/21 04:13:04;;;;;;;9.25;5.50;;;13.30;99.90;;;;;;5076235;28;20115;-79
2021/06/21 04:15:31;;;;;;;10.73;6.43;;;13.30;99.90;;;;;;5093036;28;20036;-79
2021/06/21 04:18:19;;;;;;;9.95;5.32;;;13.30;99.90;;;;;;5057845;28;20037;-79
2021/06/21 04:20:46;;;;;;;9.05;5.50;;;13.30;99.90;;;;;;5080730;28;20070;-78
2021/06/21 04:23:13;;;;;;;8.43;5.43;;;13.30;99.90;;;;;;5067532;28;20037;-79
2021/06/21 04:25:40;;;;;;;9.27;5.85;;;13.30;99.90;;;;;;5078070;28;20045;-78
2021/06/21 04:28:07;;;;;;;11.52;6.05;;;13.30;99.90;;;;;;5092663;28;20042;-78
2021/06/21 04:30:36;;;;;;;12.98;5.88;;;13.30;99.90;;;;;;5061269;28;20055;-78
2021/06/21 04:33:01;;;;;;;9.80;5.95;;;13.20;99.90;;;;;;5065500;28;20044;-76
2021/06/21 04:35:28;;;;;;;;;;;13.20;99.90;;;;;;5086365;28;20267;-77
2021/06/21 04:37:56;;;;;;;8.23;5.85;;;13.20;99.90;;;;;;5092486;28;19927;-76
2021/06/21 04:40:25;;;;;;;14.15;6.97;;;13.20;99.90;;;;;;5091668;28;20154;-75
2021/06/21 04:42:51;;;;;;;14.57;6.18;;;13.20;99.90;;;;;;5093587;28;20044;-75
2021/06/21 04:45:18;;;;;;;13.43;6.85;;;13.10;99.90;;;;;;5064042;28;20203;-75
2021/06/21 04:47:45;;;;;;;12.73;7.13;;;13.10;99.90;;;;;;5092186;28;20426;-76
2021/06/21 04:50:13;;;;;;;14.32;7.57;;;13.10;99.90;;;;;;5060523;28;20040;-76
2021/06/21 04:52:42;;;;;;;13.38;7.15;;;13.00;99.90;;;;;;5091680;28;20035;-75
2021/06/21 04:55:10;;;;;;;10.43;7.78;;;13.00;99.90;;;;;;5090838;28;20453;-76
2021/06/21 04:57:36;;;;;;;9.98;6.75;;;13.00;99.90;;;;;;5091016;28;20036;-75
2021/06/21 05:00:20;;;;;;;10.13;6.53;;;13.10;99.90;;;;;;5093180;28;20402;-76
2021/06/21 05:02:47;;;;;;;12.43;6.13;;;13.00;99.90;;;;;;5073491;28;20362;-75
2021/06/21 05:05:14;;;;;;;14.10;7.35;;;12.90;99.90;;;;;;5091511;28;20135;-76
2021/06/21 05:07:40;;;;;;;12.77;6.35;;;12.90;99.90;;;;;;5073757;28;20428;-76
2021/06/21 05:10:08;;;;;;;12.93;6.85;;;12.90;99.90;;;;;;5077362;28;20047;-76
2021/06/21 05:12:35;;;;;;;16.10;7.28;;;12.90;99.90;;;;;;5092397;28;20461;-75
2021/06/21 05:15:00;;;;;;;;;;;12.80;99.90;;;;;;5093007;28;20036;-76
2021/06/21 05:17:27;;;;;;;14.73;7.05;;;12.90;99.90;;;;;;5074405;28;19930;-76
2021/06/21 05:19:53;;;;;;;15.13;7.05;;;12.80;99.90;;;;;;5090863;28;20119;-75
2021/06/21 05:22:18;;;;;;;11.20;6.70;;;12.80;99.90;;;;;;5055848;28;20115;-76
2021/06/21 05:24:44;;;;;;;12.95;6.25;;;12.90;99.90;;;;;;5090973;28;20039;-76
2021/06/21 05:27:11;;;;;;;10.30;5.88;;;12.80;99.90;;;;;;5072809;28;20051;-76
2021/06/21 05:29:37;;;;;;;15.32;6.57;;;12.80;99.90;;;;;;5091306;28;20039;-75
2021/06/21 05:32:04;;;;;;;14.52;6.63;;;12.80;99.90;;;;;;5061409;28;20043;-76
2021/06/21 05:34:30;;;;;;;13.90;6.45;;;12.80;99.90;;;;;;5089779;28;20071;-76
2021/06/21 05:36:56;;;;;;;10.73;6.07;;;12.80;99.90;;;;;;5072951;28;20039;-75
2021/06/21 05:39:22;;;;;;;12.48;6.03;;;12.80;99.90;;;;;;5072973;28;20055;-75
2021/06/21 05:41:48;;;;;;;13.35;6.07;;;12.90;99.90;;;;;;5089744;28;20458;-76
2021/06/21 05:44:14;;;;;;;14.43;6.30;;;12.90;99.90;;;;;;5091526;28;20063;-77
2021/06/21 05:46:40;;;;;;;12.82;6.20;;;12.90;99.90;;;;;;5090599;28;20036;-75
2021/06/21 05:49:06;;;;;;;;;;;12.90;99.90;;;;;;5073384;28;20044;-77
2021/06/21 05:51:32;;;;;;;11.80;6.55;;;13.00;99.90;;;;;;5060074;28;20396;-77
2021/06/21 05:53:57;;;;;;;15.05;6.57;;;13.00;99.90;;;;;;5089706;28;20028;-77
2021/06/21 05:56:23;;;;;;;12.98;6.95;;;13.00;99.90;;;;;;5090928;28;20385;-76
2021/06/21 05:58:49;;;;;;;10.70;7.07;;;13.00;99.90;;;;;;5038601;28;20062;-75
2021/06/21 06:01:15;;;;;;;13.85;6.75;;;13.00;99.90;;;;;;5044606;28;20040;-76
2021/06/21 06:03:41;;;;;;;16.85;7.05;;;13.10;99.90;;;;;;5068173;28;20045;-75
2021/06/21 06:06:08;;;;;;;16.27;6.97;;;13.10;99.90;;;;;;5082938;28;20044;-75
2021/06/21 06:08:34;;;;;;;13.85;6.00;;;13.10;99.90;;;;;;5066181;28;20115;-75
2021/06/21 06:11:00;;;;;;;10.30;5.32;;;13.10;99.90;;;;;;5082466;28;20118;-75
2021/06/21 06:13:26;;;;;;;12.30;5.68;;;13.10;99.90;;;;;;5053137;28;20040;-75
2021/06/21 06:15:52;;;;;;;13.85;5.85;;;13.00;99.90;;;;;;5082987;28;20051;-75
2021/06/21 06:18:18;;;;;;;10.48;6.32;;;13.00;99.90;;;;;;5091212;28;20055;-76
2021/06/21 06:20:44;;;;;;;12.82;5.78;;;13.10;99.90;;;;;;5070759;28;20036;-75
2021/06/21 06:23:10;;;;;;;12.93;6.47;;;13.10;99.90;;;;;;5090635;28;20074;-75
2021/06/21 06:25:39;;;;;;;13.65;6.72;;;13.10;99.90;;;;;;5089062;28;20039;-75
2021/06/21 06:28:05;;;;;;;10.68;5.80;;;13.10;99.90;;;;;;5079937;28;20047;-75
2021/06/21 06:30:31;;;;;;;12.98;5.68;;;13.10;99.90;;;;;;5072772;28;20053;-76
2021/06/21 06:32:57;;;;;;;;;;;13.20;99.90;;;;;;5089326;28;20047;-74
2021/06/21 06:35:23;;;;;;;10.10;4.97;;;13.20;99.90;;;;;;5072885;28;20421;-75
2021/06/21 06:37:49;;;;;;;8.27;4.65;;;13.20;99.90;;;;;;5090543;28;20044;-75
2021/06/21 06:40:18;;;;;;;8.68;5.47;;;13.20;99.90;;;;;;5089421;28;20499;-77
2021/06/21 06:42:45;;;;;;;10.82;5.60;;;13.20;99.90;;;;;;5091113;28;20181;-76
2021/06/21 06:45:12;;;;;;;11.07;5.68;;;13.30;99.90;;;;;;5072522;28;20141;-76
2021/06/21 06:47:39;;;;;;;12.60;5.13;;;13.30;99.90;;;;;;5090210;28;20032;-75
2021/06/21 06:50:06;;;;;;;11.25;5.10;;;13.30;99.90;;;;;;5090438;28;20127;-76
2021/06/21 06:52:33;;;;;;;10.07;5.32;;;13.30;99.90;;;;;;5091806;28;20040;-75
2021/06/21 06:57:44;;;;;;;12.32;5.05;;;13.40;99.90;;;;;;5090206;28;20036;-76
2021/06/21 07:00:10;;;;;;;;;;;13.30;99.90;;;;;;5090959;28;20032;-76
2021/06/21 07:02:36;;;;;;;12.35;5.13;;;13.30;99.90;;;;;;5090949;28;19916;-76
2021/06/21 07:05:06;;;;;;;10.10;4.47;;;13.30;99.90;;;;;;5068440;28;20029;-77
2021/06/21 07:07:32;;;;;;;11.40;5.05;;;13.30;99.90;;;;;;5081564;28;20055;-76
2021/06/21 07:09:58;;;;;;;14.40;5.63;;;13.30;99.90;;;;;;5054780;28;20036;-75
2021/06/21 07:12:24;;;;;;;9.38;5.28;;;13.30;99.90;;;;;;5090524;28;20090;-75
2021/06/21 07:14:50;;;;;;;13.23;5.05;;;13.40;99.90;;;;;;5038099;28;20033;-76
2021/06/21 07:17:15;;;;;;;9.65;5.50;;;13.40;99.90;;;;;;5052882;28;20113;-76
2021/06/21 07:19:42;;;;;;;8.73;4.65;;;13.40;99.90;;;;;;5089385;28;20028;-76
2021/06/21 07:22:08;;;;;;;9.20;4.10;;;13.50;99.90;;;;;;5057077;28;20118;-75
2021/06/21 07:24:35;;;;;;;10.85;4.68;;;13.50;99.90;;;;;;5059541;28;20040;-76
2021/06/21 07:27:01;;;;;;;6.88;3.83;;;13.50;99.90;;;;;;5092071;28;20043;-75
2021/06/21 07:29:27;;;;;;;6.60;4.43;;;13.20;99.90;;;;;;5059217;28;20051;-76
2021/06/21 07:31:53;;;;;;;9.68;4.05;;;13.50;99.90;;;;;;5075516;28;20036;-75
2021/06/21 07:34:19;;;;;;;7.72;4.20;;;13.50;99.90;;;;;;5092436;28;20040;-76
2021/06/21 07:36:45;;;;;;;10.95;4.65;;;13.50;99.90;;;;;;5062956;28;20029;-76
2021/06/21 07:39:11;;;;;;;;;;;13.50;99.90;;;;;;5044853;28;20115;-76
2021/06/21 07:41:37;;;;;;;8.02;4.10;;;13.40;99.90;;;;;;5092762;28;20010;-76
2021/06/21 07:44:03;;;;;;;8.20;3.95;;;13.30;99.90;;;;;;5094002;28;20048;-77
2021/06/21 07:46:29;;;;;;;8.13;3.85;;;13.40;99.90;;;;;;5094220;28;20433;-77
2021/06/21 07:48:55;;;;;;;11.02;4.25;;;13.40;99.90;;;;;;5093952;28;20177;-76
2021/06/21 07:51:22;;;;;;;;;;;13.50;99.90;;;;;;5094785;28;20036;-75
2021/06/21 07:53:51;;;;;;;7.20;4.43;;;13.50;99.90;;;;;;5093213;28;19943;-75
2021/06/21 07:56:17;;;;;;;7.07;4.15;;;13.50;99.90;;;;;;5092449;28;20036;-77
2021/06/21 07:58:43;;;;;;;9.27;4.97;;;13.60;99.90;;;;;;5056343;28;20036;-77
2021/06/21 08:01:12;;;;;;;8.75;4.40;;;13.50;99.90;;;;;;5055680;28;20394;-76
2021/06/21 08:03:41;;;;;;;8.80;4.97;;;13.50;99.90;;;;;;5071706;28;20060;-76
2021/06/21 08:06:10;;;;;;;9.85;4.57;;;13.50;99.90;;;;;;5056108;28;20047;-76
2021/06/21 08:08:41;;;;;;;9.00;4.38;;;13.40;99.90;;;;;;5071871;28;20041;-76
2021/06/21 08:11:09;;;;;;;6.78;4.03;;;13.40;99.90;;;;;;5086182;28;20043;-75
2021/06/21 08:13:34;;;;;;;9.32;4.63;;;13.40;99.90;;;;;;5075392;28;20481;-76
2021/06/21 08:16:00;;;;;;;10.23;4.30;;;13.40;99.90;;;;;;5093166;28;20039;-77
2021/06/21 08:18:26;;;;;;;9.88;4.70;;;13.40;99.90;;;;;;5084495;28;20514;-76
2021/06/21 08:20:52;;;;;;;9.90;4.63;;;13.40;99.90;;;;;;5086578;28;20082;-76
2021/06/21 08:23:19;;;;;;;7.55;4.63;;;13.40;99.90;;;;;;5093240;28;20465;-75
2021/06/21 08:25:46;;;;;;;8.90;4.30;;;13.40;99.90;;;;;;5074082;28;20063;-76
2021/06/21 08:28:12;;;;;;;9.35;4.85;;;13.30;99.90;;;;;;5093147;28;20047;-76
2021/06/21 08:30:39;;;;;;;10.88;4.75;;;13.40;99.90;;;;;;5092627;28;20032;-76
2021/06/21 08:33:05;;;;;;;11.73;4.88;;;13.30;99.90;;;;;;5064515;28;20064;-76
2021/06/21 08:35:31;;;;;;;13.32;4.97;;;13.30;99.90;;;;;;5068631;28;20044;-76
2021/06/21 08:37:57;;;;;;;8.05;4.32;;;13.30;99.90;;;;;;5092264;28;20098;-77
2021/06/21 08:40:25;;;;;;;13.57;4.85;;;13.30;99.90;;;;;;5060418;28;20094;-76
2021/06/21 08:42:51;;;;;;;9.60;4.70;;;13.30;99.90;;;;;;5073826;28;20048;-76
2021/06/21 08:45:17;;;;;;;10.57;4.68;;;13.30;99.90;;;;;;5061398;28;20032;-76
2021/06/21 08:47:44;;;;;;;10.50;4.28;;;13.20;99.90;;;;;;5050401;28;20431;-76
2021/06/21 08:50:13;;;;;;;9.77;4.60;;;13.20;99.90;;;;;;5086197;28;20032;-76
2021/06/21 08:52:42;;;;;;;9.75;5.03;;;13.20;99.90;;;;;;5092601;28;20101;-77
2021/06/21 08:55:10;;;;;;;7.78;3.85;;;13.20;99.90;;;;;;5091696;28;20070;-76
2021/06/21 08:57:38;;;;;;;13.25;4.18;;;13.30;99.90;;;;;;5092682;28;20051;-76
2021/06/21 09:00:07;;;;;;;6.35;3.72;;;13.30;99.90;;;;;;5091698;28;20086;-76
2021/06/21 09:02:33;;;;;;;8.75;4.75;;;13.30;99.90;;;;;;5093106;28;20036;-75
2021/06/21 09:04:59;;;;;;;12.20;4.07;;;13.20;99.90;;;;;;5092247;28;20578;-75
2021/06/21 09:07:27;;;;;;;7.50;3.42;;;13.20;99.90;;;;;;5092677;28;20047;-75
2021/06/21 09:09:55;;;;;;;7.78;3.55;;;13.20;99.90;;;;;;5077926;28;20036;-75
2021/06/21 09:12:28;;;;;;;6.22;3.15;;;13.10;99.90;;;;;;5092459;28;20431;-75
2021/06/21 09:14:56;;;;;;;9.52;3.75;;;13.10;99.90;;;;;;5091841;28;20059;-74
2021/06/21 09:17:24;;;;;;;10.55;4.05;;;13.10;99.90;;;;;;5091962;28;20059;-75
2021/06/21 09:20:01;;;;;;;9.80;3.67;;;13.20;99.90;;;;;;5059189;28;20032;-75
2021/06/21 09:22:39;;;;;;;7.95;3.42;;;13.30;99.90;;;;;;5092297;28;20036;-75
2021/06/21 09:25:16;;;;;;;7.63;3.50;;;13.10;99.90;;;;;;5087797;28;20039;-75
2021/06/21 09:28:03;;;;;;;7.07;4.00;;;13.10;99.90;;;;;;5089493;28;20036;-75
2021/06/21 09:30:31;;;;;;;6.13;3.60;;;13.00;99.90;;;;;;5092323;28;20062;-75
2021/06/21 09:32:59;;;;;;;6.47;3.35;;;13.00;99.90;;;;;;5062313;28;20042;-75
2021/06/21 09:35:31;;;;;;;9.25;3.22;;;13.00;99.90;;;;;;5073813;28;20427;-75
2021/06/21 09:37:59;;;;;;;7.78;3.65;;;12.90;99.90;;;;;;5091668;28;20063;-75
2021/06/21 09:40:29;;;;;;;11.77;3.45;;;12.80;99.90;;;;;;5091393;28;20040;-75
2021/06/21 09:42:56;;;;;;;6.32;3.80;;;12.80;99.90;;;;;;5091163;28;20458;-75
2021/06/21 09:45:22;;;;;;;9.82;4.15;;;12.70;99.90;;;;;;5074193;28;20048;-75
2021/06/21 09:47:48;;;;;;;9.18;3.90;;;12.80;99.90;;;;;;5091853;28;20546;-76
2021/06/21 09:50:15;;;;;;;8.98;4.05;;;12.80;99.90;;;;;;5091429;28;20040;-76
2021/06/21 09:52:50;;;;;;;8.02;3.42;;;12.80;99.90;;;;;;5091488;28;20043;-75
2021/06/21 09:55:24;;;;;;;9.40;4.15;;;12.90;99.90;;;;;;5072829;28;20484;-75
2021/06/21 09:58:14;;;;;;;7.38;3.55;;;12.90;99.90;;;;;;5091072;28;20498;-75
2021/06/21 10:00:50;;;;;;;8.55;3.78;;;12.90;99.90;;;;;;5091296;28;20064;-76
2021/06/21 10:03:22;;;;;;;7.83;3.20;;;13.00;99.90;;;;;;5091957;28;20040;-75
2021/06/21 10:06:00;;;;;;;8.70;3.58;;;13.10;99.90;;;;;;5090997;28;20036;-75
2021/06/21 10:08:38;;;;;;;8.75;3.30;;;13.10;99.90;;;;;;5085713;28;20036;-75
2021/06/21 10:11:25;;;;;;;6.63;3.28;;;13.10;99.90;;;;;;5083384;28;20040;-75
2021/06/21 10:13:51;;;;;;;6.65;3.22;;;13.10;99.90;;;;;;5073002;28;20052;-75
2021/06/21 10:16:16;;;;;;;7.95;3.00;;;13.00;99.90;;;;;;5091591;28;20055;-75
2021/06/21 10:18:42;;;;;;;;;;;13.00;99.90;;;;;;5091892;28;20081;-75
2021/06/21 10:21:08;;;;;;;7.25;3.10;;;13.00;99.90;;;;;;5090558;28;19931;-75
2021/06/21 10:23:34;;;;;;;5.75;3.28;;;13.00;99.90;;;;;;5073675;28;20040;-75
2021/06/21 10:26:00;;;;;;;10.15;3.10;;;13.00;99.90;;;;;;5072055;28;20088;-75
2021/06/21 10:28:25;;;;;;;8.00;3.63;;;12.90;99.90;;;;;;5091005;28;20718;-75
2021/06/21 10:30:52;;;;;;;10.73;3.65;;;12.90;99.90;;;;;;5090649;28;20036;-75
2021/06/21 10:33:18;;;;;;;8.27;3.63;;;12.90;99.90;;;;;;5073409;28;20039;-75
2021/06/21 10:35:44;;;;;;;9.50;3.92;;;12.90;99.90;;;;;;5090608;28;20112;-75
2021/06/21 10:38:16;;;;;;;9.40;3.78;;;13.00;99.90;;;;;;5090441;28;20044;-76
2021/06/21 10:40:56;;;;;;;7.25;3.80;;;13.10;99.90;;;;;;5089940;28;20044;-75
2021/06/21 10:43:43;;;;;;;7.18;3.45;;;13.20;99.90;;;;;;5073133;28;20282;-75
2021/06/21 10:46:30;;;;;;;9.57;3.90;;;13.20;99.90;;;;;;5078750;28;20086;-75
2021/06/21 10:49:07;;;;;;;;;;;13.20;99.90;;;;;;5090175;28;20032;-75
2021/06/21 10:51:37;;;;;;;7.30;3.50;;;13.10;99.90;;;;;;5090533;28;20018;-75
2021/06/21 10:54:05;;;;;;;7.60;3.88;;;13.10;99.90;;;;;;5053413;28;20032;-76
2021/06/21 10:56:49;;;;;;;5.50;3.60;;;13.10;99.90;;;;;;5068775;28;20555;-75
2021/06/21 10:59:16;;;;;;;12.35;4.00;;;13.10;99.90;;;;;;5089596;28;20091;-75
2021/06/21 11:01:47;;;;;;;5.25;3.15;;;13.10;99.90;;;;;;5072572;28;20815;-75
2021/06/21 11:04:31;;;;;;;7.65;3.50;;;13.00;99.90;;;;;;5095208;28;20044;-76
2021/06/21 11:07:17;;;;;;;10.25;3.85;;;13.00;99.90;;;;;;5094462;28;20062;-75
2021/06/21 11:09:43;;;;;;;9.93;3.78;;;13.10;99.90;;;;;;5094286;28;20040;-76
2021/06/21 11:12:21;;;;;;;8.48;3.50;;;13.10;99.90;;;;;;5093327;28;20044;-75
2021/06/21 11:15:14;;;;;;;6.85;3.40;;;13.10;99.90;;;;;;5094573;28;20036;-76
2021/06/21 11:17:45;;;;;;;6.43;3.25;;;13.10;99.90;;;;;;5094777;28;20039;-76
2021/06/21 11:20:30;;;;;;;6.05;3.10;;;13.10;99.90;;;;;;5093827;28;20054;-76
2021/06/21 11:23:01;;;;;;;8.48;3.75;;;13.10;99.90;;;;;;5094061;28;20044;-75
2021/06/21 11:25:41;;;;;;;7.72;3.50;;;13.00;99.90;;;;;;5093487;28;20040;-76
2021/06/21 11:28:40;;;;;;;6.88;3.97;;;13.10;99.90;;;;;;5093621;28;20082;-75
2021/06/21 11:31:21;;;;;;;7.70;3.55;;;13.10;99.90;;;;;;5076061;28;20043;-76
2021/06/21 11:33:51;;;;;;;6.47;3.33;;;13.20;99.90;;;;;;5094350;28;20044;-76
2021/06/21 11:36:40;;;;;;;10.10;4.13;;;13.20;99.90;;;;;;5094521;28;20496;-76
2021/06/21 11:39:29;;;;;;;4.95;3.28;;;13.20;99.90;;;;;;5093442;28;20422;-75
2021/06/21 11:42:05;;;;;;;9.20;3.90;;;13.20;99.90;;;;;;5092874;28;20123;-75
2021/06/21 11:44:37;;;;;;;9.60;3.72;;;13.20;99.90;;;;;;5094638;28;20119;-76
2021/06/21 11:47:30;;;;;;;6.68;3.40;;;13.10;99.90;;;;;;5093998;28;20473;-76
2021/06/21 11:50:12;;;;;;;10.45;3.17;;;13.20;99.90;;;;;;5093256;28;20040;-76
2021/06/21 11:52:38;;;;;;;10.35;3.25;;;13.20;99.90;;;;;;5094616;28;20180;-76
2021/06/21 11:55:18;;;;;;;5.68;3.53;;;13.20;99.90;;;;;;5093192;28;20068;-76
2021/06/21 11:57:47;;;;;;;6.85;3.75;;;13.20;99.90;;;;;;5076898;28;20051;-76
2021/06/21 12:00:18;;;;;;;6.25;3.05;;;13.30;99.90;;;;;;5093717;28;20054;-75
2021/06/21 12:02:44;;;;;;;9.38;3.45;;;13.30;99.90;;;;;;5076410;28;20100;-76
2021/06/21 12:05:15;;;;;;;6.03;3.00;;;13.30;99.90;;;;;;5093136;28;20389;-76
2021/06/21 12:07:43;;;;;;;9.63;3.42;;;13.20;99.90;;;;;;5076112;28;20481;-75
2021/06/21 12:10:18;;;;;;;10.55;3.60;;;13.20;99.90;;;;;;5093067;28;20032;-76
2021/06/21 12:12:51;;;;;;;9.38;4.43;;;13.30;99.90;;;;;;5095057;28;20059;-75
2021/06/21 12:15:29;;;;;;;8.73;3.50;;;13.30;99.90;;;;;;5094566;28;20047;-76
2021/06/21 12:17:56;;;;;;;10.02;3.70;;;13.20;99.90;;;;;;5093918;28;20067;-76
2021/06/21 12:20:22;;;;;;;10.13;4.03;;;13.20;99.90;;;;;;5073172;28;20037;-76
2021/06/21 12:23:02;;;;;;;7.78;3.88;;;13.20;99.90;;;;;;5076424;28;20538;-77
2021/06/21 12:25:35;;;;;;;9.70;3.70;;;13.20;99.90;;;;;;5072184;28;20036;-76
2021/06/21 12:28:15;;;;;;;10.10;3.83;;;13.30;99.90;;;;;;5093065;28;20075;-77
2021/06/21 12:30:47;;;;;;;7.22;3.78;;;13.20;99.90;;;;;;5093617;28;20046;-76
2021/06/21 12:33:23;;;;;;;9.70;4.30;;;13.20;99.90;;;;;;5091755;28;20489;-76
2021/06/21 12:36:12;;;;;;;8.15;3.97;;;13.20;99.90;;;;;;5076166;28;20096;-76
2021/06/21 12:38:40;;;;;;;11.38;4.60;;;13.30;99.90;;;;;;5075592;28;20064;-76
2021/06/21 12:41:18;;;;;;;8.65;4.00;;;13.30;99.90;;;;;;5078930;28;20043;-75
2021/06/21 12:44:03;;;;;;;6.22;3.38;;;13.30;99.90;;;;;;5093122;28;20425;-76
2021/06/21 12:46:38;;;;;;;9.35;4.03;;;13.40;99.90;;;;;;5093518;28;20039;-76
2021/06/21 12:49:10;;;;;;;9.70;3.60;;;13.40;99.90;;;;;;5087732;28;20108;-76
2021/06/21 12:51:37;;;;;;;8.38;3.75;;;13.50;99.90;;;;;;5093220;28;20082;-76
2021/06/21 12:54:04;;;;;;;9.52;4.13;;;13.60;99.90;;;;;;5092460;28;20085;-76
2021/06/21 12:56:36;;;;;;;8.27;4.80;;;13.70;99.90;;;;;;5058140;28;20119;-76
2021/06/21 12:59:04;;;;;;;7.45;3.70;;;13.70;99.90;;;;;;5054680;28;20055;-76
2021/06/21 13:01:33;;;;;;;10.18;4.35;;;13.80;99.90;;;;;;5057343;28;20082;-76
2021/06/21 13:04:14;;;;;;;11.45;4.25;;;13.80;99.90;;;;;;5100490;28;20515;-76